Time;durP1;ratioP1;P1;durP2;ratioP2;P2;SDS_P1;SDS_P2;PMS_P1;PMS_P2;Temp;Humidity;BMP_temperature;BMP_pressure;BME280_temperature;BME280_humidity;BME280_pressure;Samples;Min_cycle;Max_cycle;Signal;HPM_P1;HPM_P2
2022/03/06 00:01:49;;;;;;;2.05;1.85;;;;;;;;;;4982522;28;20062;-74
2022/03/06 00:04:15;;;;;;;2.80;2.10;;;;;;;;;;4994999;28;20034;-74
2022/03/06 00:06:41;;;;;;;2.03;1.83;;;;;;;;;;4995559;28;20026;-74
2022/03/06 00:09:07;;;;;;;3.20;2.30;;;;;;;;;;4995244;28;20081;-74
2022/03/06 00:11:34;;;;;;;2.08;1.80;;;;;;;;;;4994969;28;20069;-74
2022/03/06 00:14:00;;;;;;;2.13;1.92;;;;;;;;;;4995299;28;20453;-74
2022/03/06 00:16:26;;;;;;;1.70;1.60;;;;;;;;;;4994994;28;20077;-74
2022/03/06 00:18:52;;;;;;;2.53;1.92;;;;;;;;;;4995206;28;20430;-74
2022/03/06 00:21:18;;;;;;;2.63;2.10;;;;;;;;;;4995111;28;20037;-74
2022/03/06 00:23:44;;;;;;;2.33;1.80;;;;;;;;;;4995089;28;20031;-74
2022/03/06 00:26:10;;;;;;;2.60;1.95;;;;;;;;;;5010051;28;20022;-74
2022/03/06 00:28:36;;;;;;;1.90;1.70;;;;;;;;;;4995030;28;20035;-74
2022/03/06 00:31:03;;;;;;;2.10;1.88;;;;;;;;;;4994533;28;20453;-74
2022/03/06 00:33:29;;;;;;;1.83;1.60;;;;;;;;;;4994386;28;20033;-74
2022/03/06 00:35:55;;;;;;;2.35;1.90;;;;;;;;;;4994520;28;20089;-74
2022/03/06 00:38:21;;;;;;;1.77;1.67;;;;;;;;;;4994740;28;20019;-74
2022/03/06 00:40:47;;;;;;;2.00;1.83;;;;;;;;;;4994774;28;20393;-74
2022/03/06 00:43:15;;;;;;;2.45;1.98;;;;;;;;;;4994557;28;20092;-74
2022/03/06 00:45:41;;;;;;;2.00;1.65;;;;;;;;;;4994357;28;20104;-74
2022/03/06 00:48:07;;;;;;;2.45;1.98;;;;;;;;;;4994492;28;20081;-74
2022/03/06 00:50:35;;;;;;;2.60;1.90;;;;;;;;;;4994018;28;20018;-74
2022/03/06 00:53:01;;;;;;;2.78;2.10;;;;;;;;;;4994422;28;20026;-74
2022/03/06 00:55:27;;;;;;;2.20;1.80;;;;;;;;;;4994506;28;20049;-74
2022/03/06 00:57:54;;;;;;;3.63;2.20;;;;;;;;;;4994206;28;20033;-74
2022/03/06 01:00:20;;;;;;;2.17;1.90;;;;;;;;;;4994010;28;20034;-74
2022/03/06 01:02:46;;;;;;;3.60;2.08;;;;;;;;;;5008930;28;20034;-74
2022/03/06 01:05:12;;;;;;;2.33;1.95;;;;;;;;;;4994118;28;20512;-74
2022/03/06 01:07:38;;;;;;;1.73;1.60;;;;;;;;;;4993385;28;20121;-74
2022/03/06 01:10:04;;;;;;;2.40;2.20;;;;;;;;;;4994089;28;20480;-74
2022/03/06 01:12:30;;;;;;;2.05;1.80;;;;;;;;;;4993585;28;20026;-74
2022/03/06 01:14:56;;;;;;;2.78;2.00;;;;;;;;;;4993869;28;20033;-74
2022/03/06 01:17:23;;;;;;;2.60;1.73;;;;;;;;;;4993988;28;20165;-74
2022/03/06 01:19:49;;;;;;;2.58;2.00;;;;;;;;;;4994150;28;20377;-74
2022/03/06 01:22:16;;;;;;;2.10;1.90;;;;;;;;;;4994113;28;20038;-73
2022/03/06 01:24:42;;;;;;;1.90;1.67;;;;;;;;;;4993722;28;20053;-73
2022/03/06 01:27:08;;;;;;;2.08;1.88;;;;;;;;;;4993957;28;20437;-73
2022/03/06 01:29:34;;;;;;;2.20;2.00;;;;;;;;;;4993477;28;20021;-73
2022/03/06 01:32:00;;;;;;;3.55;2.08;;;;;;;;;;4993922;28;20033;-73
2022/03/06 01:34:26;;;;;;;2.22;1.75;;;;;;;;;;4993619;28;20105;-73
2022/03/06 01:36:53;;;;;;;3.03;1.83;;;;;;;;;;4993581;28;20547;-73
2022/03/06 01:39:19;;;;;;;2.40;2.00;;;;;;;;;;4993070;28;20461;-73
2022/03/06 01:41:45;;;;;;;3.20;2.10;;;;;;;;;;4993431;28;20035;-73
2022/03/06 01:44:13;;;;;;;2.28;2.08;;;;;;;;;;4993446;28;20484;-73
2022/03/06 01:46:39;;;;;;;2.20;2.00;;;;;;;;;;4993383;28;20031;-73
2022/03/06 01:49:05;;;;;;;2.72;2.08;;;;;;;;;;4993180;28;20496;-73
2022/03/06 01:51:31;;;;;;;2.55;1.80;;;;;;;;;;4993353;28;20053;-73
2022/03/06 01:53:57;;;;;;;2.53;2.08;;;;;;;;;;4992974;28;20019;-73
2022/03/06 01:56:24;;;;;;;2.00;1.80;;;;;;;;;;4993301;28;20034;-73
2022/03/06 01:58:50;;;;;;;3.60;2.28;;;;;;;;;;4993550;28;20481;-73
2022/03/06 02:01:16;;;;;;;2.65;1.98;;;;;;;;;;4993202;28;20030;-73
2022/03/06 02:03:42;;;;;;;2.47;1.92;;;;;;;;;;4992569;28;20045;-73
2022/03/06 02:06:09;;;;;;;2.25;1.95;;;;;;;;;;4993082;28;20038;-73
2022/03/06 02:08:35;;;;;;;2.20;1.95;;;;;;;;;;4992623;28;20029;-73
2022/03/06 02:11:01;;;;;;;1.85;1.65;;;;;;;;;;4989336;28;20462;-73
2022/03/06 02:13:27;;;;;;;2.72;2.13;;;;;;;;;;4992879;28;20034;-73
2022/03/06 02:15:53;;;;;;;2.05;1.85;;;;;;;;;;5007694;28;20038;-73
2022/03/06 02:18:22;;;;;;;2.03;1.88;;;;;;;;;;4992746;28;20030;-73
2022/03/06 02:20:48;;;;;;;3.00;1.92;;;;;;;;;;4992782;28;20038;-73
2022/03/06 02:23:15;;;;;;;2.70;2.08;;;;;;;;;;4992736;28;20026;-73
2022/03/06 02:25:42;;;;;;;2.15;1.70;;;;;;;;;;4992721;28;20026;-73
2022/03/06 02:28:09;;;;;;;2.05;1.83;;;;;;;;;;4992737;28;20030;-73
2022/03/06 02:30:39;;;;;;;2.60;2.10;;;;;;;;;;4992923;28;20110;-73
2022/03/06 02:33:06;;;;;;;2.03;1.85;;;;;;;;;;4992499;28;20042;-73
2022/03/06 02:35:34;;;;;;;2.10;1.80;;;;;;;;;;5007835;28;20026;-73
2022/03/06 02:38:00;;;;;;;2.20;1.80;;;;;;;;;;4992764;28;20393;-73
2022/03/06 02:40:26;;;;;;;2.15;1.90;;;;;;;;;;4992923;28;20117;-73
2022/03/06 02:42:53;;;;;;;3.03;2.00;;;;;;;;;;4991791;28;20030;-73
2022/03/06 02:45:24;;;;;;;2.35;2.03;;;;;;;;;;5007515;28;20034;-73
2022/03/06 02:47:51;;;;;;;2.25;1.70;;;;;;;;;;4992443;28;20030;-73
2022/03/06 02:50:19;;;;;;;2.30;2.10;;;;;;;;;;4992274;28;20026;-73
2022/03/06 02:52:45;;;;;;;2.20;2.00;;;;;;;;;;4992550;28;20045;-73
2022/03/06 02:55:12;;;;;;;2.30;1.90;;;;;;;;;;4992477;28;20046;-73
2022/03/06 02:57:38;;;;;;;1.95;1.60;;;;;;;;;;4992663;28;20464;-73
2022/03/06 03:00:05;;;;;;;1.73;1.50;;;;;;;;;;4992477;28;20057;-73
2022/03/06 03:02:31;;;;;;;2.00;1.80;;;;;;;;;;5007630;28;20452;-73
2022/03/06 03:04:57;;;;;;;1.60;1.50;;;;;;;;;;4992154;28;20432;-73
2022/03/06 03:07:23;;;;;;;1.70;1.60;;;;;;;;;;4992479;28;20564;-73
2022/03/06 03:09:50;;;;;;;2.05;1.83;;;;;;;;;;4992763;28;20023;-73
2022/03/06 03:12:16;;;;;;;3.42;1.90;;;;;;;;;;4992670;28;20065;-73
2022/03/06 03:14:42;;;;;;;1.83;1.50;;;;;;;;;;4991557;28;20026;-73
2022/03/06 03:17:08;;;;;;;2.20;1.92;;;;;;;;;;4992687;28;20482;-73
2022/03/06 03:19:34;;;;;;;2.05;1.80;;;;;;;;;;4992338;28;20088;-73
2022/03/06 03:22:00;;;;;;;3.20;1.70;;;;;;;;;;4995841;28;20516;-73
2022/03/06 03:24:27;;;;;;;1.88;1.60;;;;;;;;;;4995745;28;20030;-73
2022/03/06 03:26:53;;;;;;;1.65;1.52;;;;;;;;;;4996008;28;20105;-73
2022/03/06 03:29:19;;;;;;;1.73;1.63;;;;;;;;;;4995899;28;20038;-73
2022/03/06 03:31:45;;;;;;;2.25;1.60;;;;;;;;;;4996107;28;20019;-73
2022/03/06 03:34:11;;;;;;;2.00;1.80;;;;;;;;;;4995935;28;20033;-73
2022/03/06 03:36:38;;;;;;;1.73;1.63;;;;;;;;;;4995817;28;20035;-73
2022/03/06 03:39:04;;;;;;;1.63;1.30;;;;;;;;;;4995857;28;20058;-73
2022/03/06 03:41:31;;;;;;;1.55;1.45;;;;;;;;;;4995522;28;20109;-73
2022/03/06 03:43:57;;;;;;;1.65;1.52;;;;;;;;;;4995714;28;20033;-73
2022/03/06 03:46:23;;;;;;;1.95;1.75;;;;;;;;;;4995519;28;20105;-73
2022/03/06 03:48:49;;;;;;;1.90;1.70;;;;;;;;;;4995008;28;20023;-73
2022/03/06 03:51:15;;;;;;;1.80;1.63;;;;;;;;;;4995499;28;20019;-73
2022/03/06 03:53:41;;;;;;;1.63;1.42;;;;;;;;;;4995610;28;20030;-73
2022/03/06 03:56:07;;;;;;;1.48;1.38;;;;;;;;;;4995152;28;20077;-73
2022/03/06 03:58:34;;;;;;;1.52;1.40;;;;;;;;;;4995346;28;20033;-73
2022/03/06 04:01:00;;;;;;;2.03;1.80;;;;;;;;;;4995585;28;20105;-73
2022/03/06 04:03:26;;;;;;;1.60;1.50;;;;;;;;;;5010319;28;20081;-73
2022/03/06 04:05:53;;;;;;;1.90;1.50;;;;;;;;;;5010119;28;20060;-73
2022/03/06 04:08:19;;;;;;;1.65;1.55;;;;;;;;;;4995196;28;20038;-73
2022/03/06 04:10:45;;;;;;;1.42;1.33;;;;;;;;;;4995240;28;20026;-73
2022/03/06 04:13:12;;;;;;;1.77;1.60;;;;;;;;;;4995081;28;20493;-73
2022/03/06 04:15:38;;;;;;;1.75;1.58;;;;;;;;;;4995129;28;20022;-73
2022/03/06 04:18:04;;;;;;;1.67;1.58;;;;;;;;;;4995193;28;20405;-73
2022/03/06 04:20:30;;;;;;;2.35;1.63;;;;;;;;;;4994680;28;20441;-73
2022/03/06 04:22:57;;;;;;;1.80;1.50;;;;;;;;;;5009979;28;20038;-73
2022/03/06 04:25:23;;;;;;;3.53;2.10;;;;;;;;;;4994890;28;20026;-73
2022/03/06 04:27:49;;;;;;;2.40;1.90;;;;;;;;;;5009562;28;20030;-73
2022/03/06 04:30:15;;;;;;;1.90;1.70;;;;;;;;;;4994971;28;20050;-73
2022/03/06 04:32:41;;;;;;;2.20;2.00;;;;;;;;;;4994068;28;20030;-73
2022/03/06 04:35:08;;;;;;;3.53;2.28;;;;;;;;;;4995072;28;20034;-73
2022/03/06 04:37:34;;;;;;;2.10;1.90;;;;;;;;;;4994728;28;20409;-73
2022/03/06 04:40:01;;;;;;;2.50;2.08;;;;;;;;;;4994911;28;20485;-73
2022/03/06 04:42:27;;;;;;;2.55;2.35;;;;;;;;;;4994543;28;20026;-73
2022/03/06 04:44:53;;;;;;;2.83;2.30;;;;;;;;;;4994507;28;20057;-73
2022/03/06 04:47:19;;;;;;;3.08;2.50;;;;;;;;;;4994191;28;20037;-73
2022/03/06 04:49:45;;;;;;;2.60;2.20;;;;;;;;;;4994300;28;20023;-73
2022/03/06 04:52:11;;;;;;;3.20;2.50;;;;;;;;;;4994120;28;20026;-73
2022/03/06 04:54:37;;;;;;;2.38;2.17;;;;;;;;;;4994074;28;20026;-73
2022/03/06 04:57:03;;;;;;;2.28;2.08;;;;;;;;;;4994130;28;20022;-73
2022/03/06 04:59:30;;;;;;;2.25;2.05;;;;;;;;;;4994167;28;20042;-73
2022/03/06 05:01:56;;;;;;;2.75;2.40;;;;;;;;;;5009234;28;20532;-73
2022/03/06 05:04:22;;;;;;;2.50;2.28;;;;;;;;;;4993860;28;20049;-73
2022/03/06 05:06:48;;;;;;;2.90;2.28;;;;;;;;;;4993898;28;20096;-73
2022/03/06 05:09:14;;;;;;;2.58;2.33;;;;;;;;;;4994109;28;20022;-73
2022/03/06 05:11:40;;;;;;;2.63;2.17;;;;;;;;;;4994260;28;20041;-73
2022/03/06 05:14:06;;;;;;;2.78;2.10;;;;;;;;;;4993838;28;20027;-73
2022/03/06 05:16:32;;;;;;;2.47;2.25;;;;;;;;;;4993773;28;20034;-73
2022/03/06 05:18:59;;;;;;;2.63;2.30;;;;;;;;;;4993796;28;20026;-73
2022/03/06 05:21:25;;;;;;;2.45;2.25;;;;;;;;;;4993910;28;20057;-73
2022/03/06 05:23:51;;;;;;;2.60;2.40;;;;;;;;;;4993375;28;20516;-73
2022/03/06 05:26:18;;;;;;;2.63;2.15;;;;;;;;;;4993550;28;20037;-73
2022/03/06 05:28:44;;;;;;;4.05;2.45;;;;;;;;;;4993866;28;20393;-73
2022/03/06 05:31:10;;;;;;;2.45;2.25;;;;;;;;;;5008748;28;20082;-73
2022/03/06 05:33:36;;;;;;;2.55;2.00;;;;;;;;;;5008582;28;20037;-73
2022/03/06 05:36:03;;;;;;;2.70;2.40;;;;;;;;;;4993543;28;20026;-73
2022/03/06 05:38:29;;;;;;;2.03;1.83;;;;;;;;;;5008324;28;20513;-73
2022/03/06 05:40:55;;;;;;;1.98;1.83;;;;;;;;;;4993912;28;20393;-73
2022/03/06 05:43:21;;;;;;;2.65;2.05;;;;;;;;;;4992820;28;20085;-73
2022/03/06 05:45:52;;;;;;;2.47;1.95;;;;;;;;;;4993207;28;20037;-73
2022/03/06 05:48:21;;;;;;;2.40;2.15;;;;;;;;;;4992908;28;20084;-73
2022/03/06 05:50:47;;;;;;;2.05;1.88;;;;;;;;;;4993369;28;20022;-73
2022/03/06 05:53:13;;;;;;;2.45;2.20;;;;;;;;;;4993386;28;20094;-73
2022/03/06 05:55:39;;;;;;;2.10;1.90;;;;;;;;;;4992633;28;20387;-73
2022/03/06 05:58:05;;;;;;;2.75;2.03;;;;;;;;;;5008154;28;20038;-73
2022/03/06 06:00:31;;;;;;;2.13;1.92;;;;;;;;;;5008127;28;20552;-73
2022/03/06 06:02:57;;;;;;;3.13;2.17;;;;;;;;;;5008051;28;20114;-73
2022/03/06 06:05:24;;;;;;;2.10;1.90;;;;;;;;;;4993658;28;20026;-73
2022/03/06 06:07:50;;;;;;;2.40;2.20;;;;;;;;;;4992911;28;20045;-73
2022/03/06 06:10:16;;;;;;;2.60;1.98;;;;;;;;;;4993055;28;20023;-73
2022/03/06 06:12:42;;;;;;;1.63;1.52;;;;;;;;;;4992809;28;20076;-73
2022/03/06 06:15:09;;;;;;;2.10;1.80;;;;;;;;;;4993012;28;20038;-73
2022/03/06 06:17:36;;;;;;;2.33;2.00;;;;;;;;;;4992997;28;20034;-73
2022/03/06 06:20:04;;;;;;;2.58;2.22;;;;;;;;;;4992621;28;20093;-73
2022/03/06 06:22:31;;;;;;;2.50;2.13;;;;;;;;;;4993098;28;20039;-73
2022/03/06 06:24:57;;;;;;;2.40;1.85;;;;;;;;;;4992686;28;20033;-73
2022/03/06 06:27:23;;;;;;;2.20;1.90;;;;;;;;;;4997548;28;20377;-73
2022/03/06 06:29:50;;;;;;;2.60;2.20;;;;;;;;;;5008752;28;20026;-73
2022/03/06 06:32:16;;;;;;;2.55;2.35;;;;;;;;;;5007981;28;20026;-73
2022/03/06 06:34:42;;;;;;;2.30;2.08;;;;;;;;;;4992584;28;20064;-73
2022/03/06 06:37:08;;;;;;;1.85;1.73;;;;;;;;;;4992552;28;20068;-73
2022/03/06 06:39:34;;;;;;;2.20;1.85;;;;;;;;;;4992603;28;20026;-73
2022/03/06 06:42:01;;;;;;;2.55;2.10;;;;;;;;;;4992949;28;20023;-73
2022/03/06 06:44:27;;;;;;;2.95;2.05;;;;;;;;;;5007541;28;20023;-73
2022/03/06 06:46:53;;;;;;;2.22;2.03;;;;;;;;;;5008052;28;20504;-73
2022/03/06 06:49:19;;;;;;;2.55;2.00;;;;;;;;;;5007534;28;20467;-73
2022/03/06 06:51:45;;;;;;;2.20;2.05;;;;;;;;;;4993029;28;20026;-73
2022/03/06 06:54:13;;;;;;;2.20;2.00;;;;;;;;;;4992564;28;20022;-73
2022/03/06 06:56:39;;;;;;;1.80;1.58;;;;;;;;;;5010688;28;20092;-73
2022/03/06 06:59:05;;;;;;;2.28;2.08;;;;;;;;;;4996476;28;20031;-73
2022/03/06 07:01:32;;;;;;;3.15;1.70;;;;;;;;;;4995904;28;20507;-73
2022/03/06 07:03:58;;;;;;;2.05;1.85;;;;;;;;;;4996306;28;20137;-73
2022/03/06 07:06:24;;;;;;;2.70;1.80;;;;;;;;;;4996310;28;20034;-73
2022/03/06 07:08:50;;;;;;;3.75;1.90;;;;;;;;;;4996085;28;20030;-73
2022/03/06 07:11:16;;;;;;;2.42;2.10;;;;;;;;;;5011370;28;20022;-73
2022/03/06 07:13:42;;;;;;;2.08;1.88;;;;;;;;;;4996279;28;20416;-73
2022/03/06 07:16:08;;;;;;;2.20;1.95;;;;;;;;;;5011447;28;20428;-74
2022/03/06 07:18:34;;;;;;;2.60;2.10;;;;;;;;;;4996080;28;20460;-74
2022/03/06 07:21:04;;;;;;;2.00;1.63;;;;;;;;;;5011068;28;20030;-74
2022/03/06 07:23:30;;;;;;;3.25;2.25;;;;;;;;;;4996065;28;20029;-74
2022/03/06 07:25:57;;;;;;;2.53;2.10;;;;;;;;;;4995840;28;20030;-74
2022/03/06 07:28:23;;;;;;;2.42;1.98;;;;;;;;;;4995876;28;20054;-74
2022/03/06 07:30:49;;;;;;;2.45;2.25;;;;;;;;;;4996070;28;20058;-73
2022/03/06 07:33:15;;;;;;;2.58;2.20;;;;;;;;;;4995393;28;20023;-73
2022/03/06 07:35:41;;;;;;;2.90;2.20;;;;;;;;;;4995663;28;20022;-73
2022/03/06 07:38:07;;;;;;;2.22;2.03;;;;;;;;;;4995572;28;20022;-74
2022/03/06 07:40:34;;;;;;;2.13;1.90;;;;;;;;;;5010723;28;20034;-74
2022/03/06 07:43:00;;;;;;;2.20;2.00;;;;;;;;;;5010687;28;20176;-74
2022/03/06 07:45:26;;;;;;;2.90;2.17;;;;;;;;;;4995563;28;20034;-74
2022/03/06 07:47:52;;;;;;;2.20;1.98;;;;;;;;;;4995480;28;20108;-74
2022/03/06 07:50:19;;;;;;;2.55;2.03;;;;;;;;;;5010189;28;20041;-74
2022/03/06 07:52:45;;;;;;;2.30;1.95;;;;;;;;;;4995909;28;20481;-74
2022/03/06 07:55:12;;;;;;;2.20;2.00;;;;;;;;;;4995215;28;20489;-74
2022/03/06 07:57:38;;;;;;;2.30;2.10;;;;;;;;;;4995504;28;20109;-74
2022/03/06 08:00:06;;;;;;;2.38;1.80;;;;;;;;;;5010184;28;20490;-74
2022/03/06 08:02:32;;;;;;;2.22;1.90;;;;;;;;;;4995053;28;20101;-74
2022/03/06 08:04:58;;;;;;;2.03;1.80;;;;;;;;;;4994525;28;20502;-74
2022/03/06 08:07:24;;;;;;;2.75;2.20;;;;;;;;;;4994209;28;20042;-74
2022/03/06 08:09:50;;;;;;;2.25;1.85;;;;;;;;;;4994934;28;20033;-74
2022/03/06 08:12:16;;;;;;;2.17;1.98;;;;;;;;;;4995037;28;20074;-74
2022/03/06 08:14:42;;;;;;;2.30;1.98;;;;;;;;;;4994905;28;20105;-74
2022/03/06 08:17:08;;;;;;;2.67;2.45;;;;;;;;;;4995365;28;20026;-74
2022/03/06 08:19:34;;;;;;;2.30;2.00;;;;;;;;;;5009583;28;20027;-74
2022/03/06 08:22:00;;;;;;;3.00;2.22;;;;;;;;;;4995025;28;20084;-74
2022/03/06 08:24:27;;;;;;;2.45;2.13;;;;;;;;;;5009905;28;20033;-74
2022/03/06 08:26:53;;;;;;;3.58;2.40;;;;;;;;;;4995037;28;20022;-74
2022/03/06 08:29:19;;;;;;;2.08;1.88;;;;;;;;;;4994679;28;20033;-74
2022/03/06 08:31:46;;;;;;;2.45;2.25;;;;;;;;;;4994752;28;20019;-74
2022/03/06 08:34:12;;;;;;;2.30;2.08;;;;;;;;;;4994859;28;20038;-74
2022/03/06 08:36:38;;;;;;;2.15;1.67;;;;;;;;;;4994329;28;20543;-74
2022/03/06 08:39:04;;;;;;;2.88;2.20;;;;;;;;;;4994852;28;20473;-74
2022/03/06 08:41:30;;;;;;;2.30;2.10;;;;;;;;;;4994657;28;20101;-74
2022/03/06 08:43:56;;;;;;;2.20;2.00;;;;;;;;;;4974952;28;20043;-74
2022/03/06 08:46:22;;;;;;;3.03;2.35;;;;;;;;;;4974928;28;20119;-74
2022/03/06 08:48:48;;;;;;;2.75;2.10;;;;;;;;;;4974933;28;20085;-74
2022/03/06 08:51:15;;;;;;;1.92;1.73;;;;;;;;;;4984191;28;20022;-74
2022/03/06 08:53:41;;;;;;;2.08;1.88;;;;;;;;;;4994446;28;20030;-74
2022/03/06 08:56:07;;;;;;;2.67;2.08;;;;;;;;;;4994187;28;20022;-74
2022/03/06 08:58:35;;;;;;;3.05;2.15;;;;;;;;;;5009461;28;20413;-74
2022/03/06 09:01:01;;;;;;;2.85;2.00;;;;;;;;;;4994090;28;20026;-73
2022/03/06 09:03:27;;;;;;;2.95;1.80;;;;;;;;;;4994363;28;20528;-73
2022/03/06 09:05:53;;;;;;;2.47;1.98;;;;;;;;;;4994286;28;20485;-73
2022/03/06 09:08:19;;;;;;;2.45;2.13;;;;;;;;;;4994158;28;20410;-73
2022/03/06 09:10:45;;;;;;;2.47;2.00;;;;;;;;;;4993554;28;20677;-73
2022/03/06 09:13:11;;;;;;;4.63;2.20;;;;;;;;;;5008996;28;20497;-73
2022/03/06 09:15:37;;;;;;;2.58;2.38;;;;;;;;;;4994379;28;20420;-73
2022/03/06 09:18:04;;;;;;;2.15;1.90;;;;;;;;;;4993569;28;20058;-73
2022/03/06 09:20:30;;;;;;;2.30;2.00;;;;;;;;;;4993509;28;20027;-73
2022/03/06 09:22:56;;;;;;;2.22;2.03;;;;;;;;;;4993903;28;20026;-73
2022/03/06 09:25:22;;;;;;;2.33;2.08;;;;;;;;;;4993668;28;20080;-74
2022/03/06 09:27:49;;;;;;;2.33;2.00;;;;;;;;;;4993687;28;20042;-74
2022/03/06 09:30:15;;;;;;;2.50;1.92;;;;;;;;;;4993743;28;20385;-74
2022/03/06 09:32:41;;;;;;;2.50;2.30;;;;;;;;;;4993922;28;20135;-75
2022/03/06 09:35:08;;;;;;;2.13;1.92;;;;;;;;;;4993654;28;20117;-74
2022/03/06 09:37:34;;;;;;;2.78;2.17;;;;;;;;;;5008635;28;20030;-74
2022/03/06 09:40:00;;;;;;;2.60;2.28;;;;;;;;;;4993567;28;20125;-74
2022/03/06 09:42:27;;;;;;;2.13;1.92;;;;;;;;;;4992875;28;20037;-73
2022/03/06 09:44:53;;;;;;;2.30;2.10;;;;;;;;;;4993333;28;20076;-73
2022/03/06 09:47:19;;;;;;;2.78;2.15;;;;;;;;;;4993374;28;20042;-74
2022/03/06 09:49:46;;;;;;;2.63;2.22;;;;;;;;;;4993245;28;20030;-74
2022/03/06 09:52:13;;;;;;;3.22;2.20;;;;;;;;;;4992991;28;20086;-74
2022/03/06 09:54:39;;;;;;;2.97;2.28;;;;;;;;;;4993271;28;20027;-74
2022/03/06 09:57:06;;;;;;;2.55;1.90;;;;;;;;;;5008415;28;20042;-74
2022/03/06 09:59:32;;;;;;;2.67;2.33;;;;;;;;;;4993166;28;20030;-75
2022/03/06 10:02:06;;;;;;;2.45;2.10;;;;;;;;;;4993222;28;20060;-75
2022/03/06 10:04:32;;;;;;;;;;;;;;;;;;4993404;28;20047;-75
2022/03/06 10:06:58;;;;;;;2.72;2.00;;;;;;;;;;5008127;28;19918;-75
2022/03/06 10:09:24;;;;;;;2.65;2.22;;;;;;;;;;4993329;28;20060;-75
2022/03/06 10:11:54;;;;;;;3.10;2.30;;;;;;;;;;5007812;28;20106;-75
2022/03/06 10:14:40;;;;;;;2.38;2.05;;;;;;;;;;5002258;28;20018;-75
2022/03/06 10:17:14;;;;;;;2.78;2.15;;;;;;;;;;5007929;28;20038;-75
2022/03/06 10:20:06;;;;;;;2.65;2.08;;;;;;;;;;5008079;28;20030;-75
2022/03/06 10:22:36;;;;;;;2.33;2.10;;;;;;;;;;4991755;28;20535;-75
2022/03/06 10:25:06;;;;;;;2.95;2.28;;;;;;;;;;4992790;28;20030;-75
2022/03/06 10:27:44;;;;;;;2.15;1.95;;;;;;;;;;4992682;28;20030;-75
2022/03/06 10:30:22;;;;;;;3.15;2.33;;;;;;;;;;5007233;28;20030;-75
2022/03/06 10:32:48;;;;;;;2.83;2.25;;;;;;;;;;4992574;28;20401;-75
2022/03/06 10:35:14;;;;;;;2.72;2.47;;;;;;;;;;4993154;28;20477;-75
2022/03/06 10:37:40;;;;;;;2.42;2.22;;;;;;;;;;4992872;28;20026;-75
2022/03/06 10:40:07;;;;;;;2.25;2.05;;;;;;;;;;5007875;28;20418;-75
2022/03/06 10:42:34;;;;;;;2.45;2.17;;;;;;;;;;4992469;28;20109;-76
2022/03/06 10:45:00;;;;;;;2.47;2.17;;;;;;;;;;4992594;28;20110;-76
2022/03/06 10:47:26;;;;;;;2.60;2.20;;;;;;;;;;4991938;28;20027;-76
2022/03/06 10:50:05;;;;;;;2.88;2.47;;;;;;;;;;4993030;28;20069;-76
2022/03/06 10:52:39;;;;;;;3.40;2.72;;;;;;;;;;4973041;28;20030;-75
2022/03/06 10:55:06;;;;;;;2.95;2.38;;;;;;;;;;4973205;28;20070;-76
2022/03/06 10:57:32;;;;;;;2.20;2.00;;;;;;;;;;4973178;28;20070;-76
2022/03/06 10:59:59;;;;;;;2.92;2.33;;;;;;;;;;4973000;28;20034;-76
2022/03/06 11:02:26;;;;;;;2.25;2.05;;;;;;;;;;4972808;28;20027;-76
2022/03/06 11:04:53;;;;;;;2.65;2.10;;;;;;;;;;4987927;28;20047;-76
2022/03/06 11:07:20;;;;;;;2.67;2.20;;;;;;;;;;4972939;28;20398;-76
2022/03/06 11:09:46;;;;;;;3.35;2.30;;;;;;;;;;4973461;28;20053;-76
2022/03/06 11:12:13;;;;;;;2.55;2.35;;;;;;;;;;4972856;28;20019;-76
2022/03/06 11:14:40;;;;;;;2.38;2.17;;;;;;;;;;4972762;28;20035;-76
2022/03/06 11:17:06;;;;;;;3.05;2.50;;;;;;;;;;4973207;28;20092;-76
2022/03/06 11:19:34;;;;;;;2.60;2.40;;;;;;;;;;4988047;28;20041;-76
2022/03/06 11:22:18;;;;;;;2.95;2.30;;;;;;;;;;4992254;28;20493;-75
2022/03/06 11:24:49;;;;;;;2.50;2.10;;;;;;;;;;4992278;28;20441;-76
2022/03/06 11:27:25;;;;;;;2.55;2.30;;;;;;;;;;4992344;28;20409;-76
2022/03/06 11:29:54;;;;;;;3.17;2.20;;;;;;;;;;5007397;28;20026;-77
2022/03/06 11:32:28;;;;;;;3.25;2.30;;;;;;;;;;5007501;28;20018;-76
2022/03/06 11:35:02;;;;;;;2.90;2.40;;;;;;;;;;4992456;28;20504;-77
2022/03/06 11:37:28;;;;;;;2.40;2.13;;;;;;;;;;5007407;28;20022;-76
2022/03/06 11:39:55;;;;;;;4.03;2.53;;;;;;;;;;4992342;28;20048;-76
2022/03/06 11:42:39;;;;;;;2.70;2.50;;;;;;;;;;4993350;28;20034;-76
2022/03/06 11:45:06;;;;;;;2.70;2.30;;;;;;;;;;5010854;28;20053;-76
2022/03/06 11:47:39;;;;;;;2.35;2.15;;;;;;;;;;4995571;28;20030;-76
2022/03/06 11:50:06;;;;;;;2.72;2.45;;;;;;;;;;5010126;28;20041;-76
2022/03/06 11:52:33;;;;;;;3.05;2.42;;;;;;;;;;4995572;28;20022;-76
2022/03/06 11:55:03;;;;;;;2.92;2.33;;;;;;;;;;4995542;28;20104;-76
2022/03/06 11:57:39;;;;;;;3.22;2.92;;;;;;;;;;4995720;28;20026;-76
2022/03/06 12:00:15;;;;;;;2.63;2.35;;;;;;;;;;4995310;28;20105;-76
2022/03/06 12:02:51;;;;;;;2.95;2.53;;;;;;;;;;5009862;28;20023;-76
2022/03/06 12:05:17;;;;;;;2.92;2.63;;;;;;;;;;5010365;28;20035;-76
2022/03/06 12:07:46;;;;;;;3.28;2.47;;;;;;;;;;4995198;28;20031;-76
2022/03/06 12:10:13;;;;;;;3.30;2.78;;;;;;;;;;4995602;28;20030;-76
2022/03/06 12:12:39;;;;;;;2.55;2.28;;;;;;;;;;5009967;28;20500;-76
2022/03/06 12:15:16;;;;;;;3.47;2.90;;;;;;;;;;4995006;28;20034;-76
2022/03/06 12:17:43;;;;;;;3.38;2.90;;;;;;;;;;5010102;28;20085;-76
2022/03/06 12:20:09;;;;;;;4.15;3.00;;;;;;;;;;4995041;28;20096;-76
2022/03/06 12:22:36;;;;;;;3.40;2.72;;;;;;;;;;5009341;28;20113;-76
2022/03/06 12:25:11;;;;;;;3.28;2.72;;;;;;;;;;4995018;28;20054;-76
2022/03/06 12:27:38;;;;;;;2.67;2.47;;;;;;;;;;4995088;28;20022;-76
2022/03/06 12:30:05;;;;;;;4.07;2.95;;;;;;;;;;4994697;28;20027;-75
2022/03/06 12:32:36;;;;;;;3.20;2.75;;;;;;;;;;4994963;28;20057;-76
2022/03/06 12:35:04;;;;;;;5.80;2.60;;;;;;;;;;4994749;28;20026;-76
2022/03/06 12:37:31;;;;;;;2.90;2.63;;;;;;;;;;4994649;28;20061;-76
2022/03/06 12:39:57;;;;;;;3.00;2.50;;;;;;;;;;4994971;28;20541;-76
2022/03/06 12:42:24;;;;;;;3.53;2.50;;;;;;;;;;4994918;28;20393;-76
2022/03/06 12:44:53;;;;;;;2.97;2.63;;;;;;;;;;4994254;28;20030;-76
2022/03/06 12:47:19;;;;;;;3.85;2.95;;;;;;;;;;4995056;28;20529;-76
2022/03/06 12:49:46;;;;;;;2.63;2.38;;;;;;;;;;4994235;28;20026;-76
2022/03/06 12:52:16;;;;;;;3.83;2.40;;;;;;;;;;4994392;28;20018;-76
2022/03/06 12:54:42;;;;;;;2.97;2.50;;;;;;;;;;4992992;28;20026;-76
2022/03/06 12:57:08;;;;;;;3.20;2.72;;;;;;;;;;4994606;28;20429;-76
2022/03/06 12:59:39;;;;;;;2.60;2.38;;;;;;;;;;5009271;28;20053;-76
2022/03/06 13:02:06;;;;;;;3.08;2.30;;;;;;;;;;4994422;28;20033;-75
2022/03/06 13:04:34;;;;;;;2.80;2.50;;;;;;;;;;4993876;28;20050;-76
2022/03/06 13:07:00;;;;;;;2.80;2.50;;;;;;;;;;4994545;28;20034;-76
2022/03/06 13:09:27;;;;;;;3.28;2.47;;;;;;;;;;4994237;28;20076;-75
2022/03/06 13:11:54;;;;;;;2.83;2.45;;;;;;;;;;5009176;28;20023;-75
2022/03/06 13:14:46;;;;;;;2.95;2.42;;;;;;;;;;4993656;28;20026;-76
2022/03/06 13:17:13;;;;;;;3.65;2.63;;;;;;;;;;4992591;28;20457;-76
2022/03/06 13:19:59;;;;;;;2.45;2.08;;;;;;;;;;4993743;28;20038;-76
2022/03/06 13:22:26;;;;;;;2.10;1.90;;;;;;;;;;5009092;28;20042;-76
2022/03/06 13:24:56;;;;;;;2.60;2.40;;;;;;;;;;4993585;28;20030;-76
2022/03/06 13:27:24;;;;;;;2.70;2.28;;;;;;;;;;4993441;28;20030;-75
2022/03/06 13:30:05;;;;;;;2.80;2.55;;;;;;;;;;5008782;28;20030;-76
2022/03/06 13:32:32;;;;;;;3.45;2.22;;;;;;;;;;4993962;28;20109;-76
2022/03/06 13:34:58;;;;;;;2.70;2.35;;;;;;;;;;4993664;28;20030;-76
2022/03/06 13:37:32;;;;;;;2.72;2.20;;;;;;;;;;4993487;28;20493;-75
2022/03/06 13:39:58;;;;;;;2.42;2.13;;;;;;;;;;4993513;28;20508;-76
2022/03/06 13:42:34;;;;;;;2.95;2.10;;;;;;;;;;4993809;28;20027;-76
2022/03/06 13:45:02;;;;;;;2.75;2.40;;;;;;;;;;4992966;28;20030;-75
2022/03/06 13:47:38;;;;;;;2.80;2.08;;;;;;;;;;4993457;28;20026;-76
2022/03/06 13:50:05;;;;;;;3.20;2.42;;;;;;;;;;4993249;28;20026;-76
2022/03/06 13:52:36;;;;;;;2.88;2.40;;;;;;;;;;4993816;28;20030;-76
2022/03/06 13:55:03;;;;;;;2.50;2.30;;;;;;;;;;4993088;28;20031;-76
2022/03/06 13:57:29;;;;;;;2.53;2.20;;;;;;;;;;4993269;28;20054;-76
2022/03/06 13:59:55;;;;;;;2.30;2.10;;;;;;;;;;4993141;28;20480;-76
2022/03/06 14:02:27;;;;;;;2.47;1.80;;;;;;;;;;4993252;28;20511;-76
2022/03/06 14:04:53;;;;;;;2.85;2.20;;;;;;;;;;5007040;28;20512;-75
2022/03/06 14:07:24;;;;;;;3.20;2.20;;;;;;;;;;5008350;28;20446;-76
2022/03/06 14:09:50;;;;;;;2.78;2.20;;;;;;;;;;4992996;28;20033;-76
2022/03/06 14:12:17;;;;;;;2.67;2.40;;;;;;;;;;4993098;28;20034;-76
2022/03/06 14:14:47;;;;;;;2.47;2.22;;;;;;;;;;4993058;28;20023;-76
2022/03/06 14:17:14;;;;;;;2.55;2.15;;;;;;;;;;4992900;28;20027;-76
2022/03/06 14:19:41;;;;;;;3.25;2.72;;;;;;;;;;4993083;28;20034;-76
2022/03/06 14:22:09;;;;;;;2.40;2.20;;;;;;;;;;4992790;28;20053;-76
2022/03/06 14:24:36;;;;;;;2.92;2.40;;;;;;;;;;4993256;28;20038;-76
2022/03/06 14:27:02;;;;;;;2.25;2.05;;;;;;;;;;5007889;28;20030;-76
2022/03/06 14:29:29;;;;;;;2.55;2.35;;;;;;;;;;4992895;28;20022;-76
2022/03/06 14:31:55;;;;;;;2.03;1.83;;;;;;;;;;4992526;28;20117;-76
2022/03/06 14:34:22;;;;;;;2.83;2.28;;;;;;;;;;4993099;28;20022;-76
2022/03/06 14:36:48;;;;;;;2.28;1.98;;;;;;;;;;4992804;28;20037;-76
2022/03/06 14:39:15;;;;;;;2.75;2.45;;;;;;;;;;4993016;28;20054;-76
2022/03/06 14:41:41;;;;;;;1.92;1.70;;;;;;;;;;4992951;28;20501;-76
2022/03/06 14:44:08;;;;;;;3.92;2.10;;;;;;;;;;4992532;28;20065;-76